createdAt,value
2023-05-08T00:02:00.393Z,7.53
2023-05-08T00:04:27.563Z,6.53
2023-05-08T00:06:54.628Z,8.38
2023-05-08T00:09:21.797Z,7.32
2023-05-08T00:11:48.844Z,7.72
2023-05-08T00:14:15.874Z,7.22
2023-05-08T00:16:42.945Z,8.00
2023-05-08T00:19:10.092Z,7.47
2023-05-08T00:21:37.146Z,7.07
2023-05-08T00:24:04.309Z,8.20
2023-05-08T00:26:31.347Z,7.35
2023-05-08T00:28:58.424Z,7.60
2023-05-08T00:31:25.479Z,7.90
2023-05-08T00:33:52.560Z,7.20
2023-05-08T00:36:19.697Z,7.68
2023-05-08T00:38:47.115Z,7.75
2023-05-08T00:41:14.157Z,7.15
2023-05-08T00:43:41.215Z,7.95
2023-05-08T00:46:09.900Z,7.57
2023-05-08T00:48:37.121Z,7.60
2023-05-08T00:51:05.871Z,6.97
2023-05-08T00:53:34.218Z,7.70
2023-05-08T00:56:01.397Z,8.40
2023-05-08T00:58:28.688Z,8.10
2023-05-08T01:00:56.706Z,8.00
2023-05-08T01:03:24.548Z,8.27
2023-05-08T01:05:51.635Z,7.30
2023-05-08T01:08:18.643Z,7.72
2023-05-08T01:11:02.231Z,7.15
2023-05-08T01:13:47.781Z,8.23
2023-05-08T01:16:17.687Z,6.93
2023-05-08T01:18:51.741Z,6.90
2023-05-08T01:21:25.368Z,8.30
2023-05-08T01:24:11.171Z,7.28
2023-05-08T01:26:56.994Z,7.10
2023-05-08T01:29:41.259Z,7.53
2023-05-08T01:34:37.363Z,6.90
2023-05-08T01:37:04.400Z,6.93
2023-05-08T01:39:45.437Z,6.00
2023-05-08T01:42:24.880Z,6.80
2023-05-08T01:44:58.174Z,5.93
2023-05-08T01:47:27.631Z,5.75
2023-05-08T01:50:09.407Z,6.30
2023-05-08T01:52:43.276Z,6.53
2023-05-08T01:55:11.488Z,6.35
2023-05-08T01:57:40.787Z,6.70
2023-05-08T02:00:09.282Z,6.82
2023-05-08T02:02:36.831Z,6.50
2023-05-08T02:05:05.871Z,6.32
2023-05-08T02:07:35.098Z,7.72
2023-05-08T02:10:03.566Z,9.68
2023-05-08T02:12:32.173Z,10.02
2023-05-08T02:15:00.767Z,10.85
2023-05-08T02:17:28.381Z,10.85
2023-05-08T02:19:56.011Z,10.55
2023-05-08T02:22:24.092Z,9.52
2023-05-08T02:24:55.169Z,9.82
2023-05-08T02:27:23.304Z,9.75
2023-05-08T02:29:51.994Z,10.15
2023-05-08T02:32:20.783Z,10.10
2023-05-08T02:35:01.834Z,11.25
2023-05-08T02:37:29.565Z,9.70
2023-05-08T02:39:56.999Z,10.98
2023-05-08T02:42:24.019Z,10.35
2023-05-08T02:44:51.051Z,9.50
2023-05-08T02:47:22.674Z,9.52
2023-05-08T02:49:53.158Z,9.95
2023-05-08T02:52:23.338Z,9.90
2023-05-08T02:55:11.710Z,10.18
2023-05-08T02:57:47.203Z,10.43
2023-05-08T03:00:14.480Z,9.93
2023-05-08T03:02:43.102Z,8.90
2023-05-08T03:05:18.046Z,9.68
2023-05-08T03:07:47.902Z,9.27
2023-05-08T03:10:16.686Z,10.15
2023-05-08T03:12:46.154Z,8.88
2023-05-08T03:15:15.803Z,10.15
2023-05-08T03:17:44.251Z,9.88
2023-05-08T03:20:13.195Z,10.05
2023-05-08T03:22:41.481Z,10.05
2023-05-08T03:25:10.508Z,10.73
2023-05-08T03:27:38.085Z,9.68
2023-05-08T03:30:06.157Z,8.30
2023-05-08T03:32:33.884Z,8.18
2023-05-08T03:35:02.267Z,9.63
2023-05-08T03:37:29.226Z,8.98
2023-05-08T03:39:56.650Z,8.98
2023-05-08T03:42:27.266Z,8.73
2023-05-08T03:44:54.390Z,8.68
2023-05-08T03:47:21.963Z,9.25
2023-05-08T03:49:50.172Z,8.70
2023-05-08T03:52:16.948Z,8.65
2023-05-08T03:54:43.634Z,8.10
2023-05-08T03:57:10.534Z,8.98
2023-05-08T04:00:09.794Z,8.52
2023-05-08T04:03:09.886Z,8.88
2023-05-08T04:05:38.736Z,8.68
2023-05-08T04:08:08.547Z,8.40
2023-05-08T04:10:46.278Z,9.07
2023-05-08T04:13:16.015Z,8.68
2023-05-08T04:16:08.412Z,8.27
2023-05-08T04:18:38.355Z,8.60
2023-05-08T04:21:09.382Z,8.85
2023-05-08T04:23:37.079Z,8.57
2023-05-08T04:26:05.582Z,7.57
2023-05-08T04:28:34.370Z,8.57
2023-05-08T04:31:01.955Z,8.60
2023-05-08T04:33:29.333Z,8.55
2023-05-08T04:35:57.078Z,7.90
2023-05-08T04:38:24.188Z,7.78
2023-05-08T04:40:51.189Z,8.30
2023-05-08T04:43:18.212Z,8.73
2023-05-08T04:45:45.332Z,8.40
2023-05-08T04:48:12.480Z,8.15
2023-05-08T04:50:39.585Z,7.88
2023-05-08T04:53:06.589Z,8.77
2023-05-08T04:55:33.693Z,8.27
2023-05-08T04:58:00.817Z,8.32
2023-05-08T05:00:27.870Z,8.63
2023-05-08T05:02:54.919Z,9.07
2023-05-08T05:05:22.122Z,8.00
2023-05-08T05:07:48.813Z,8.85
2023-05-08T05:10:15.831Z,9.23
2023-05-08T05:12:42.601Z,8.82
2023-05-08T05:15:10.366Z,9.35
2023-05-08T05:17:37.235Z,8.07
2023-05-08T05:20:05.904Z,8.73
2023-05-08T05:22:33.166Z,9.38
2023-05-08T05:24:59.831Z,8.90
2023-05-08T05:27:26.536Z,7.72
2023-05-08T05:29:53.129Z,8.35
2023-05-08T05:32:20.883Z,8.15
2023-05-08T05:34:47.760Z,8.43
2023-05-08T05:37:14.378Z,8.88
2023-05-08T05:39:41.021Z,8.48
2023-05-08T05:42:07.666Z,8.35
2023-05-08T05:44:34.285Z,8.48
2023-05-08T05:47:00.947Z,7.45
2023-05-08T05:49:27.589Z,9.00
2023-05-08T05:51:54.217Z,9.35
2023-05-08T05:54:20.871Z,8.60
2023-05-08T05:56:48.242Z,9.20
2023-05-08T05:59:15.107Z,8.57
2023-05-08T06:01:42.448Z,8.55
2023-05-08T06:04:10.053Z,9.27
2023-05-08T06:06:37.236Z,9.60
2023-05-08T06:09:04.462Z,9.23
2023-05-08T06:11:31.614Z,10.20
2023-05-08T06:13:59.115Z,8.70
2023-05-08T06:16:26.313Z,9.27
2023-05-08T06:18:53.328Z,8.45
2023-05-08T06:21:20.501Z,9.13
2023-05-08T06:23:47.577Z,9.25
2023-05-08T06:26:14.619Z,9.60
2023-05-08T06:28:41.694Z,9.70
2023-05-08T06:31:08.849Z,9.13
2023-05-08T06:33:35.935Z,9.70
2023-05-08T06:36:04.542Z,9.95
2023-05-08T06:38:31.585Z,9.48
2023-05-08T06:40:58.739Z,10.20
2023-05-08T06:43:25.785Z,8.75
2023-05-08T06:45:53.124Z,8.90
2023-05-08T06:48:20.714Z,9.60
2023-05-08T06:50:48.151Z,9.43
2023-05-08T06:53:15.353Z,9.10
2023-05-08T06:55:43.702Z,9.55
2023-05-08T06:58:10.774Z,9.20
2023-05-08T07:00:37.878Z,9.57
2023-05-08T07:03:05.155Z,8.80
2023-05-08T07:05:32.469Z,8.50
2023-05-08T07:07:59.519Z,8.95
2023-05-08T07:10:26.608Z,9.02
2023-05-08T07:12:54.431Z,9.40
2023-05-08T07:15:26.519Z,8.63
2023-05-08T07:17:54.413Z,9.23
2023-05-08T07:20:21.847Z,9.10
2023-05-08T07:22:49.142Z,9.30
2023-05-08T07:25:16.862Z,8.55
2023-05-08T07:27:44.017Z,8.70
2023-05-08T07:30:11.215Z,8.88
2023-05-08T07:32:41.320Z,8.70
2023-05-08T07:35:11.110Z,8.38
2023-05-08T07:37:38.820Z,8.65
2023-05-08T07:40:06.176Z,9.23
2023-05-08T07:42:38.603Z,7.82
2023-05-08T07:45:05.879Z,8.60
2023-05-08T07:47:33.039Z,8.73
2023-05-08T07:50:00.198Z,9.65
2023-05-08T07:52:27.452Z,7.47
2023-05-08T07:54:54.629Z,9.05
2023-05-08T07:57:21.717Z,7.47
2023-05-08T07:59:48.763Z,7.97
2023-05-08T08:02:16.135Z,8.20
2023-05-08T08:04:43.277Z,8.48
2023-05-08T08:07:10.332Z,9.02
2023-05-08T08:09:37.411Z,8.05
2023-05-08T08:12:04.597Z,8.73
2023-05-08T08:14:31.796Z,8.23
2023-05-08T08:16:59.469Z,7.85
2023-05-08T08:19:26.318Z,9.48
2023-05-08T08:21:52.925Z,8.65
2023-05-08T08:24:19.672Z,8.38
2023-05-08T08:26:46.366Z,8.00
2023-05-08T08:29:13.019Z,8.73
2023-05-08T08:31:39.816Z,8.45
2023-05-08T08:34:06.538Z,8.68
2023-05-08T08:36:33.332Z,8.70
2023-05-08T08:39:00.738Z,8.40
2023-05-08T08:41:28.140Z,8.05
2023-05-08T08:43:58.312Z,8.85
2023-05-08T08:46:26.349Z,8.23
2023-05-08T08:48:56.933Z,9.07
2023-05-08T08:51:33.749Z,9.70
2023-05-08T08:54:13.325Z,9.07
2023-05-08T08:56:44.858Z,8.73
2023-05-08T08:59:13.204Z,8.73
2023-05-08T09:01:41.392Z,9.73
2023-05-08T09:04:09.069Z,8.52
2023-05-08T09:06:37.013Z,8.43
2023-05-08T09:09:04.739Z,9.32
2023-05-08T09:11:31.449Z,10.50
2023-05-08T09:13:58.467Z,9.68
2023-05-08T09:16:25.700Z,8.73
2023-05-08T09:18:52.367Z,8.35
2023-05-08T09:21:19.468Z,9.02
2023-05-08T09:24:03.542Z,8.32
2023-05-08T09:26:35.217Z,9.75
2023-05-08T09:29:12.715Z,10.25
2023-05-08T09:31:42.428Z,9.50
2023-05-08T09:34:11.163Z,10.02
2023-05-08T09:36:40.622Z,9.55
2023-05-08T09:39:12.543Z,10.93
2023-05-08T09:41:39.460Z,9.45
2023-05-08T09:44:07.242Z,10.13
2023-05-08T09:46:34.550Z,10.32
2023-05-08T09:49:02.891Z,9.85
2023-05-08T09:51:31.161Z,9.93
2023-05-08T09:53:59.395Z,10.48
2023-05-08T09:56:36.801Z,10.98
2023-05-08T09:59:05.037Z,10.60
2023-05-08T10:01:36.164Z,9.75
2023-05-08T10:04:05.699Z,10.48
2023-05-08T10:06:33.336Z,10.77
2023-05-08T10:09:13.466Z,11.60
2023-05-08T10:11:52.560Z,12.15
2023-05-08T10:14:20.430Z,10.70
2023-05-08T10:16:54.383Z,11.90
2023-05-08T10:19:22.760Z,11.63
2023-05-08T10:21:50.936Z,11.32
2023-05-08T10:24:19.057Z,11.13
2023-05-08T10:27:05.704Z,11.32
2023-05-08T10:29:39.945Z,11.25
2023-05-08T10:32:10.052Z,10.68
2023-05-08T10:34:39.510Z,10.43
2023-05-08T10:37:08.384Z,11.55
2023-05-08T10:39:35.635Z,10.38
2023-05-08T10:42:03.192Z,10.93
2023-05-08T10:44:30.560Z,11.65
2023-05-08T10:46:57.669Z,10.85
2023-05-08T10:49:43.813Z,10.80
2023-05-08T10:52:23.654Z,11.10
2023-05-08T10:55:04.657Z,11.05
2023-05-08T10:57:32.074Z,12.15
2023-05-08T10:59:59.169Z,11.70
2023-05-08T11:02:30.214Z,12.05
2023-05-08T11:05:16.664Z,12.18
2023-05-08T11:08:01.342Z,11.73
2023-05-08T11:10:32.191Z,12.98
2023-05-08T11:12:59.602Z,11.38
2023-05-08T11:15:36.473Z,12.30
2023-05-08T11:18:07.415Z,12.27
2023-05-08T11:20:57.425Z,11.60
2023-05-08T11:23:27.942Z,11.77
2023-05-08T11:26:00.443Z,11.13
2023-05-08T11:28:27.641Z,10.63
2023-05-08T11:30:56.335Z,13.25
2023-05-08T11:33:23.879Z,13.23
2023-05-08T11:35:57.980Z,12.43
2023-05-08T11:38:36.268Z,11.35
2023-05-08T11:41:07.601Z,12.48
2023-05-08T11:43:37.561Z,13.70
2023-05-08T11:46:05.688Z,12.38
2023-05-08T11:48:33.449Z,11.52
2023-05-08T11:51:00.672Z,12.68
2023-05-08T11:53:27.989Z,10.93
2023-05-08T11:55:55.460Z,11.35
2023-05-08T11:58:22.607Z,11.68
2023-05-08T12:00:50.171Z,10.80
2023-05-08T12:03:18.470Z,11.15
2023-05-08T12:05:46.118Z,10.73
2023-05-08T12:08:13.980Z,11.05
2023-05-08T12:10:47.040Z,10.80
2023-05-08T12:13:18.889Z,11.13
2023-05-08T12:15:46.887Z,10.73
2023-05-08T12:18:14.245Z,11.40
2023-05-08T12:20:41.382Z,11.85
2023-05-08T12:23:10.180Z,11.95
2023-05-08T12:25:40.480Z,11.85
2023-05-08T12:28:08.138Z,11.20
2023-05-08T12:30:35.280Z,12.45
2023-05-08T12:33:02.934Z,10.25
2023-05-08T12:35:30.224Z,10.43
2023-05-08T12:38:03.926Z,10.68
2023-05-08T12:40:32.222Z,10.80
2023-05-08T12:43:02.673Z,11.07
2023-05-08T12:45:33.776Z,11.55
2023-05-08T12:48:02.026Z,10.70
2023-05-08T12:50:30.628Z,10.77
2023-05-08T12:53:18.043Z,11.18
2023-05-08T12:55:55.821Z,10.52
2023-05-08T12:58:26.828Z,10.45
2023-05-08T13:00:54.850Z,10.43
2023-05-08T13:03:26.309Z,10.80
2023-05-08T13:05:54.094Z,11.45
2023-05-08T13:08:21.326Z,11.85
2023-05-08T13:10:48.368Z,11.20
2023-05-08T13:13:16.314Z,11.05
2023-05-08T13:15:43.845Z,12.07
2023-05-08T13:18:11.221Z,11.38
2023-05-08T13:20:38.797Z,11.07
2023-05-08T13:23:06.283Z,11.90
2023-05-08T13:25:33.594Z,11.52
2023-05-08T13:28:00.787Z,11.80
2023-05-08T13:30:27.965Z,10.63
2023-05-08T13:32:55.409Z,12.38
2023-05-08T13:35:23.033Z,12.70
2023-05-08T13:37:50.812Z,12.32
2023-05-08T13:40:18.337Z,13.73
2023-05-08T13:42:45.382Z,13.10
2023-05-08T13:45:16.321Z,13.15
2023-05-08T13:47:43.721Z,13.80
2023-05-08T13:50:11.229Z,13.23
2023-05-08T13:52:38.919Z,13.48
2023-05-08T13:55:07.129Z,13.73
2023-05-08T13:57:34.423Z,12.80
2023-05-08T14:00:01.524Z,12.27
2023-05-08T14:02:28.949Z,13.68
2023-05-08T14:04:56.125Z,13.45
2023-05-08T14:07:23.250Z,12.20
2023-05-08T14:09:50.594Z,12.27
2023-05-08T14:12:17.758Z,10.88
2023-05-08T14:14:44.983Z,10.63
2023-05-08T14:17:12.125Z,11.10
2023-05-08T14:19:39.251Z,11.45
2023-05-08T14:22:06.937Z,11.70
2023-05-08T14:24:34.014Z,10.60
2023-05-08T14:27:05.573Z,10.10
2023-05-08T14:29:35.732Z,8.60
2023-05-08T14:32:03.984Z,8.40
2023-05-08T14:34:31.128Z,8.45
2023-05-08T14:36:58.171Z,9.68
2023-05-08T14:39:25.286Z,8.68
2023-05-08T14:42:14.233Z,9.43
2023-05-08T14:44:39.908Z,9.02
2023-05-08T14:47:07.015Z,9.35
2023-05-08T14:52:04.232Z,8.77
2023-05-08T14:54:31.575Z,10.05
2023-05-08T14:56:58.742Z,9.50
2023-05-08T14:59:25.626Z,10.73
2023-05-08T15:01:52.409Z,10.02
2023-05-08T15:04:19.254Z,10.88
2023-05-08T15:06:46.110Z,11.13
2023-05-08T15:09:12.787Z,10.70
2023-05-08T15:11:39.843Z,11.13
2023-05-08T15:14:06.541Z,10.75
2023-05-08T15:16:33.299Z,9.82
2023-05-08T15:19:00.095Z,10.40
2023-05-08T15:21:27.577Z,10.95
2023-05-08T15:23:57.683Z,10.73
2023-05-08T15:26:24.313Z,11.15
2023-05-08T15:28:51.169Z,12.05
2023-05-08T15:31:18.552Z,11.93
2023-05-08T15:33:47.645Z,12.02
2023-05-08T15:36:15.230Z,11.10
2023-05-08T15:38:42.320Z,11.93
2023-05-08T15:41:15.213Z,11.23
2023-05-08T15:43:43.242Z,12.50
2023-05-08T15:46:10.789Z,12.68
2023-05-08T15:48:37.927Z,11.68
2023-05-08T15:51:04.959Z,11.73
2023-05-08T15:53:33.729Z,11.70
2023-05-08T15:56:00.794Z,12.02
2023-05-08T15:58:27.847Z,11.60
2023-05-08T16:00:54.825Z,11.02
2023-05-08T16:03:21.707Z,10.82
2023-05-08T16:05:48.700Z,10.63
2023-05-08T16:08:15.481Z,9.20
2023-05-08T16:10:42.263Z,9.55
2023-05-08T16:13:09.228Z,8.70
2023-05-08T16:15:36.048Z,10.10
2023-05-08T16:18:03.122Z,10.85
2023-05-08T16:20:30.523Z,10.68
2023-05-08T16:22:57.935Z,11.52
2023-05-08T16:25:25.468Z,10.65
2023-05-08T16:27:52.287Z,11.55
2023-05-08T16:30:19.073Z,11.95
2023-05-08T16:32:46.058Z,11.23
2023-05-08T16:35:13.153Z,12.02
2023-05-08T16:37:40.341Z,11.63
2023-05-08T16:40:08.169Z,11.73
2023-05-08T16:42:35.008Z,11.45
2023-05-08T16:45:02.089Z,11.27
2023-05-08T16:47:28.721Z,11.63
2023-05-08T16:49:55.844Z,11.25
2023-05-08T16:52:22.604Z,12.40
2023-05-08T16:54:49.307Z,11.50
2023-05-08T16:57:15.939Z,12.43
2023-05-08T16:59:42.663Z,11.00
2023-05-08T17:02:09.389Z,11.30
2023-05-08T17:04:36.323Z,11.48
2023-05-08T17:07:04.996Z,11.85
2023-05-08T17:09:33.092Z,10.88
2023-05-08T17:12:01.818Z,12.30
2023-05-08T17:14:28.533Z,11.93
2023-05-08T17:16:55.357Z,12.25
2023-05-08T17:19:22.117Z,12.88
2023-05-08T17:21:48.801Z,12.52
2023-05-08T17:24:15.450Z,11.55
2023-05-08T17:26:42.212Z,11.93
2023-05-08T17:29:08.888Z,12.02
2023-05-08T17:31:35.554Z,11.43
2023-05-08T17:34:02.245Z,10.93
2023-05-08T17:36:28.953Z,11.70
2023-05-08T17:38:55.787Z,11.52
2023-05-08T17:41:22.687Z,12.50
2023-05-08T17:43:49.291Z,11.38
2023-05-08T17:46:16.098Z,11.85
2023-05-08T17:48:42.813Z,10.85
2023-05-08T17:51:13.213Z,12.00
2023-05-08T17:53:40.395Z,10.60
2023-05-08T17:56:07.471Z,10.00
2023-05-08T17:58:34.117Z,12.43
2023-05-08T18:01:00.842Z,11.05
2023-05-08T18:03:27.517Z,11.60
2023-05-08T18:05:54.229Z,11.52
2023-05-08T18:08:20.962Z,11.18
2023-05-08T18:10:47.582Z,11.73
2023-05-08T18:13:14.222Z,12.27
2023-05-08T18:15:41.138Z,12.82
2023-05-08T18:18:08.130Z,12.93
2023-05-08T18:20:35.041Z,11.77
2023-05-08T18:23:01.849Z,12.65
2023-05-08T18:25:28.707Z,12.65
2023-05-08T18:27:55.354Z,12.82
2023-05-08T18:30:22.006Z,12.30
2023-05-08T18:32:48.733Z,13.90
2023-05-08T18:35:15.598Z,12.30
2023-05-08T18:37:42.202Z,13.27
2023-05-08T18:40:09.353Z,13.30
2023-05-08T18:42:36.208Z,13.65
2023-05-08T18:45:05.860Z,12.80
2023-05-08T18:47:32.945Z,14.18
2023-05-08T18:50:00.373Z,12.48
2023-05-08T18:52:27.337Z,13.07
2023-05-08T18:54:53.992Z,13.75
2023-05-08T18:57:20.744Z,12.98
2023-05-08T18:59:47.357Z,13.95
2023-05-08T19:02:14.443Z,14.43
2023-05-08T19:04:41.235Z,13.90
2023-05-08T19:07:07.928Z,14.52
2023-05-08T19:09:35.009Z,14.93
2023-05-08T19:12:01.852Z,11.88
2023-05-08T19:14:28.451Z,12.80
2023-05-08T19:16:57.723Z,12.38
2023-05-08T19:19:25.501Z,13.50
2023-05-08T19:21:52.520Z,14.68
2023-05-08T19:24:20.870Z,13.45
2023-05-08T19:26:48.079Z,13.02
2023-05-08T19:29:15.190Z,12.30
2023-05-08T19:31:42.309Z,12.27
2023-05-08T19:34:09.360Z,11.90
2023-05-08T19:36:37.786Z,12.07
2023-05-08T19:39:05.138Z,11.05
2023-05-08T19:41:31.747Z,11.43
2023-05-08T19:43:58.378Z,12.52
2023-05-08T19:46:25.152Z,12.60
2023-05-08T19:48:51.997Z,11.35
2023-05-08T19:51:18.672Z,11.55
2023-05-08T19:53:45.452Z,12.52
2023-05-08T19:56:12.188Z,11.52
2023-05-08T19:58:38.762Z,11.52
2023-05-08T20:01:05.477Z,12.40
2023-05-08T20:03:32.627Z,12.82
2023-05-08T20:05:59.780Z,12.15
2023-05-08T20:08:26.862Z,12.18
2023-05-08T20:10:54.021Z,12.88
2023-05-08T20:13:21.624Z,12.23
2023-05-08T20:15:48.789Z,11.85
2023-05-08T20:18:16.015Z,12.93
2023-05-08T20:20:45.000Z,12.38
2023-05-08T20:23:12.259Z,12.90
2023-05-08T20:25:39.384Z,12.95
2023-05-08T20:28:06.471Z,13.27
2023-05-08T20:30:33.507Z,13.95
2023-05-08T20:33:04.567Z,13.57
2023-05-08T20:35:32.828Z,15.45
2023-05-08T20:37:59.901Z,14.82
2023-05-08T20:40:26.980Z,14.48
2023-05-08T20:42:54.041Z,15.32
2023-05-08T20:45:21.264Z,14.02
2023-05-08T20:47:47.970Z,15.35
2023-05-08T20:50:16.088Z,16.10
2023-05-08T20:52:43.059Z,15.02
2023-05-08T20:55:09.958Z,15.55
2023-05-08T20:57:36.709Z,15.57
2023-05-08T21:00:04.011Z,15.45
2023-05-08T21:02:30.643Z,15.15
2023-05-08T21:04:57.329Z,15.57
2023-05-08T21:07:23.992Z,15.50
2023-05-08T21:09:50.634Z,17.48
2023-05-08T21:12:17.296Z,15.68
2023-05-08T21:14:43.953Z,16.42
2023-05-08T21:17:10.694Z,16.10
2023-05-08T21:19:38.011Z,17.08
2023-05-08T21:22:05.222Z,17.23
2023-05-08T21:24:32.242Z,16.20
2023-05-08T21:27:00.402Z,16.42
2023-05-08T21:29:27.534Z,17.05
2023-05-08T21:31:54.731Z,17.70
2023-05-08T21:34:21.823Z,17.38
2023-05-08T21:36:49.094Z,17.13
2023-05-08T21:39:16.109Z,15.93
2023-05-08T21:41:43.546Z,16.73
2023-05-08T21:44:12.745Z,15.50
2023-05-08T21:46:40.244Z,15.80
2023-05-08T21:49:07.324Z,15.60
2023-05-08T21:51:34.437Z,16.02
2023-05-08T21:54:01.420Z,14.40
2023-05-08T21:56:28.417Z,13.30
2023-05-08T21:58:55.676Z,12.93
2023-05-08T22:01:22.775Z,14.40
2023-05-08T22:03:49.507Z,13.57
2023-05-08T22:06:16.611Z,14.77
2023-05-08T22:08:43.239Z,13.77
2023-05-08T22:11:09.864Z,14.02
2023-05-08T22:13:36.982Z,12.25
2023-05-08T22:16:04.200Z,14.00
2023-05-08T22:18:31.305Z,13.75
2023-05-08T22:20:58.460Z,12.55
2023-05-08T22:23:25.459Z,12.45
2023-05-08T22:25:52.550Z,12.50
2023-05-08T22:28:19.678Z,12.18
2023-05-08T22:30:46.804Z,12.70
2023-05-08T22:33:13.916Z,11.70
2023-05-08T22:35:40.981Z,12.80
2023-05-08T22:38:08.035Z,12.27
2023-05-08T22:40:35.283Z,10.43
2023-05-08T22:43:02.459Z,10.75
2023-05-08T22:45:29.637Z,12.13
2023-05-08T22:47:56.905Z,12.85
2023-05-08T22:50:24.098Z,13.20
2023-05-08T22:52:51.210Z,12.27
2023-05-08T22:55:18.458Z,12.38
2023-05-08T22:57:45.722Z,11.23
2023-05-08T23:00:13.078Z,11.13
2023-05-08T23:02:40.205Z,11.48
2023-05-08T23:05:07.685Z,11.57
2023-05-08T23:07:34.290Z,11.48
2023-05-08T23:10:00.906Z,11.13
2023-05-08T23:12:27.548Z,11.02
2023-05-08T23:14:54.164Z,11.52
2023-05-08T23:17:20.749Z,10.18
2023-05-08T23:19:47.376Z,11.45
2023-05-08T23:22:14.046Z,9.95
2023-05-08T23:24:40.714Z,10.43
2023-05-08T23:27:07.315Z,11.02
2023-05-08T23:29:33.933Z,10.35
2023-05-08T23:32:00.573Z,10.50
2023-05-08T23:34:27.216Z,9.57
2023-05-08T23:36:53.856Z,11.02
2023-05-08T23:39:20.931Z,10.88
2023-05-08T23:41:47.999Z,12.38
2023-05-08T23:44:15.431Z,10.82
2023-05-08T23:46:42.646Z,10.63
2023-05-08T23:49:09.725Z,11.55
2023-05-08T23:51:36.750Z,10.82
2023-05-08T23:54:04.440Z,11.23
2023-05-08T23:56:31.447Z,11.27
2023-05-08T23:58:58.499Z,10.13
